sensor_id;sensor_type;location;lat;lon;timestamp;pressure;altitude;pressure_sealevel;temperature;humidity
20043;BME280;10182;52.896;6.496;2022-10-04T00:00:46;102201.06;;;11.41;100.00
20043;BME280;10182;52.896;6.496;2022-10-04T00:05:49;102201.13;;;11.40;100.00
20043;BME280;10182;52.896;6.496;2022-10-04T00:11:04;102189.47;;;11.45;100.00
20043;BME280;10182;52.896;6.496;2022-10-04T00:16:18;102181.69;;;11.39;100.00
20043;BME280;10182;52.896;6.496;2022-10-04T00:21:21;102172.94;;;11.35;100.00
20043;BME280;10182;52.896;6.496;2022-10-04T00:32:26;102169.56;;;11.30;100.00
20043;BME280;10182;52.896;6.496;2022-10-04T00:37:52;102173.16;;;11.28;100.00
20043;BME280;10182;52.896;6.496;2022-10-04T00:42:57;102171.31;;;11.30;100.00
20043;BME280;10182;52.896;6.496;2022-10-04T00:48:34;102163.50;;;11.25;100.00
20043;BME280;10182;52.896;6.496;2022-10-04T00:53:49;102157.31;;;11.25;100.00
20043;BME280;10182;52.896;6.496;2022-10-04T00:59:09;102152.88;;;11.25;100.00
20043;BME280;10182;52.896;6.496;2022-10-04T01:04:25;102149.38;;;11.23;100.00
20043;BME280;10182;52.896;6.496;2022-10-04T01:09:29;102138.81;;;11.22;100.00
20043;BME280;10182;52.896;6.496;2022-10-04T01:14:42;102132.72;;;11.20;100.00
20043;BME280;10182;52.896;6.496;2022-10-04T01:19:51;102131.00;;;11.17;100.00
20043;BME280;10182;52.896;6.496;2022-10-04T01:24:54;102125.75;;;11.15;100.00
20043;BME280;10182;52.896;6.496;2022-10-04T01:29:56;102129.25;;;11.16;100.00
20043;BME280;10182;52.896;6.496;2022-10-04T01:34:58;102121.25;;;11.17;100.00
20043;BME280;10182;52.896;6.496;2022-10-04T01:40:01;102101.75;;;11.20;100.00
20043;BME280;10182;52.896;6.496;2022-10-04T01:45:07;102097.38;;;11.17;100.00
20043;BME280;10182;52.896;6.496;2022-10-04T01:50:14;102093.94;;;11.15;100.00
20043;BME280;10182;52.896;6.496;2022-10-04T01:55:23;102101.84;;;11.17;100.00
20043;BME280;10182;52.896;6.496;2022-10-04T02:00:27;102092.03;;;11.19;100.00
20043;BME280;10182;52.896;6.496;2022-10-04T02:05:32;102082.44;;;11.15;100.00
20043;BME280;10182;52.896;6.496;2022-10-04T02:10:37;102085.19;;;11.12;100.00
20043;BME280;10182;52.896;6.496;2022-10-04T02:15:41;102077.22;;;11.12;100.00
20043;BME280;10182;52.896;6.496;2022-10-04T02:20:44;102065.97;;;11.04;100.00
20043;BME280;10182;52.896;6.496;2022-10-04T02:25:49;102052.91;;;10.96;100.00
20043;BME280;10182;52.896;6.496;2022-10-04T02:30:52;102037.28;;;10.85;100.00
20043;BME280;10182;52.896;6.496;2022-10-04T02:36:12;102036.53;;;10.81;100.00
20043;BME280;10182;52.896;6.496;2022-10-04T02:41:22;102026.97;;;10.76;100.00
20043;BME280;10182;52.896;6.496;2022-10-04T02:46:27;102016.47;;;10.71;100.00
20043;BME280;10182;52.896;6.496;2022-10-04T02:51:37;102021.09;;;10.63;100.00
20043;BME280;10182;52.896;6.496;2022-10-04T02:56:42;102012.47;;;10.55;100.00
20043;BME280;10182;52.896;6.496;2022-10-04T03:01:50;102003.72;;;10.51;100.00
20043;BME280;10182;52.896;6.496;2022-10-04T03:06:53;102006.56;;;10.45;100.00
20043;BME280;10182;52.896;6.496;2022-10-04T03:11:57;102015.38;;;10.45;100.00
20043;BME280;10182;52.896;6.496;2022-10-04T03:17:00;101997.78;;;10.43;100.00
20043;BME280;10182;52.896;6.496;2022-10-04T03:22:07;101995.25;;;10.38;100.00
20043;BME280;10182;52.896;6.496;2022-10-04T03:27:14;101991.00;;;10.31;100.00
20043;BME280;10182;52.896;6.496;2022-10-04T03:32:18;101991.31;;;10.19;100.00
20043;BME280;10182;52.896;6.496;2022-10-04T03:37:21;101972.88;;;10.14;100.00
20043;BME280;10182;52.896;6.496;2022-10-04T03:42:25;101977.44;;;10.07;100.00
20043;BME280;10182;52.896;6.496;2022-10-04T03:47:31;101979.31;;;10.04;100.00
20043;BME280;10182;52.896;6.496;2022-10-04T03:52:35;101969.72;;;9.99;100.00
20043;BME280;10182;52.896;6.496;2022-10-04T03:57:39;101983.16;;;9.90;100.00
20043;BME280;10182;52.896;6.496;2022-10-04T04:02:43;101973.59;;;9.85;100.00
20043;BME280;10182;52.896;6.496;2022-10-04T04:07:56;101976.34;;;9.81;100.00
20043;BME280;10182;52.896;6.496;2022-10-04T04:13:16;101965.81;;;9.78;100.00
20043;BME280;10182;52.896;6.496;2022-10-04T04:18:23;101979.03;;;9.78;100.00
20043;BME280;10182;52.896;6.496;2022-10-04T04:23:28;101967.63;;;9.76;100.00
20043;BME280;10182;52.896;6.496;2022-10-04T04:28:39;101964.25;;;9.70;100.00
20043;BME280;10182;52.896;6.496;2022-10-04T04:33:44;101963.50;;;9.64;100.00
20043;BME280;10182;52.896;6.496;2022-10-04T04:38:47;101958.31;;;9.60;100.00
20043;BME280;10182;52.896;6.496;2022-10-04T04:44:15;101957.44;;;9.59;100.00
20043;BME280;10182;52.896;6.496;2022-10-04T04:49:18;101954.91;;;9.55;100.00
20043;BME280;10182;52.896;6.496;2022-10-04T04:54:23;101947.81;;;9.57;100.00
20043;BME280;10182;52.896;6.496;2022-10-04T04:59:27;101943.50;;;9.51;100.00
20043;BME280;10182;52.896;6.496;2022-10-04T05:04:29;101944.53;;;9.45;100.00
20043;BME280;10182;52.896;6.496;2022-10-04T05:09:32;101938.50;;;9.39;100.00
20043;BME280;10182;52.896;6.496;2022-10-04T05:14:39;101939.19;;;9.47;100.00
20043;BME280;10182;52.896;6.496;2022-10-04T05:19:44;101935.72;;;9.45;100.00
20043;BME280;10182;52.896;6.496;2022-10-04T05:24:47;101947.22;;;9.44;100.00
20043;BME280;10182;52.896;6.496;2022-10-04T05:30:00;101956.09;;;9.41;100.00
20043;BME280;10182;52.896;6.496;2022-10-04T05:35:14;101943.00;;;9.35;100.00
20043;BME280;10182;52.896;6.496;2022-10-04T05:40:27;101934.16;;;9.36;100.00
20043;BME280;10182;52.896;6.496;2022-10-04T05:45:32;101931.63;;;9.31;100.00
20043;BME280;10182;52.896;6.496;2022-10-04T05:50:37;101939.59;;;9.30;100.00
20043;BME280;10182;52.896;6.496;2022-10-04T05:55:46;101941.34;;;9.31;100.00
20043;BME280;10182;52.896;6.496;2022-10-04T06:01:08;101943.88;;;9.36;100.00
20043;BME280;10182;52.896;6.496;2022-10-04T06:06:17;101935.91;;;9.37;100.00
20043;BME280;10182;52.896;6.496;2022-10-04T06:11:30;101937.56;;;9.41;100.00
20043;BME280;10182;52.896;6.496;2022-10-04T06:16:55;101937.56;;;9.41;100.00
20043;BME280;10182;52.896;6.496;2022-10-04T06:22:08;101944.53;;;9.45;100.00
20043;BME280;10182;52.896;6.496;2022-10-04T06:27:18;101945.34;;;9.49;100.00
20043;BME280;10182;52.896;6.496;2022-10-04T06:32:40;101936.50;;;9.50;100.00
20043;BME280;10182;52.896;6.496;2022-10-04T06:38:03;101930.03;;;9.62;100.00
20043;BME280;10182;52.896;6.496;2022-10-04T06:43:26;101916.81;;;9.62;100.00
20043;BME280;10182;52.896;6.496;2022-10-04T06:48:48;101915.69;;;9.72;100.00
20043;BME280;10182;52.896;6.496;2022-10-04T06:54:01;101922.34;;;9.89;100.00
20043;BME280;10182;52.896;6.496;2022-10-04T06:59:36;101913.63;;;10.18;100.00
20043;BME280;10182;52.896;6.496;2022-10-04T07:04:45;101904.91;;;10.49;100.00
20043;BME280;10182;52.896;6.496;2022-10-04T07:09:53;101897.84;;;10.79;100.00
20043;BME280;10182;52.896;6.496;2022-10-04T07:14:59;101905.31;;;10.96;100.00
20043;BME280;10182;52.896;6.496;2022-10-04T07:20:13;101899.03;;;11.00;100.00
20043;BME280;10182;52.896;6.496;2022-10-04T07:25:21;101898.88;;;11.05;100.00
20043;BME280;10182;52.896;6.496;2022-10-04T07:30:24;101899.78;;;11.04;100.00
20043;BME280;10182;52.896;6.496;2022-10-04T07:35:43;101893.75;;;10.99;100.00
20043;BME280;10182;52.896;6.496;2022-10-04T07:41:00;101897.00;;;11.09;100.00
20043;BME280;10182;52.896;6.496;2022-10-04T07:46:12;101897.59;;;11.47;100.00
20043;BME280;10182;52.896;6.496;2022-10-04T07:51:23;101891.16;;;11.81;100.00
20043;BME280;10182;52.896;6.496;2022-10-04T07:56:33;101900.72;;;12.13;100.00
20043;BME280;10182;52.896;6.496;2022-10-04T08:01:42;101910.16;;;12.47;100.00
20043;BME280;10182;52.896;6.496;2022-10-04T08:06:55;101898.66;;;12.47;100.00
20043;BME280;10182;52.896;6.496;2022-10-04T08:12:05;101902.03;;;12.50;100.00
20043;BME280;10182;52.896;6.496;2022-10-04T08:17:21;101905.81;;;12.45;100.00
20043;BME280;10182;52.896;6.496;2022-10-04T08:22:32;101908.41;;;12.21;100.00
20043;BME280;10182;52.896;6.496;2022-10-04T08:27:54;101911.44;;;12.10;100.00
20043;BME280;10182;52.896;6.496;2022-10-04T08:33:25;101899.91;;;12.11;100.00
20043;BME280;10182;52.896;6.496;2022-10-04T08:38:41;101898.00;;;12.40;100.00
20043;BME280;10182;52.896;6.496;2022-10-04T08:49:52;101890.88;;;12.90;97.52
20043;BME280;10182;52.896;6.496;2022-10-04T08:55:19;101893.88;;;13.04;97.07
20043;BME280;10182;52.896;6.496;2022-10-04T09:00:43;101893.63;;;13.10;95.88
20043;BME280;10182;52.896;6.496;2022-10-04T09:05:53;101904.59;;;13.25;95.39
20043;BME280;10182;52.896;6.496;2022-10-04T09:11:08;101888.91;;;13.41;94.94
20043;BME280;10182;52.896;6.496;2022-10-04T09:16:17;101895.41;;;13.56;94.24
20043;BME280;10182;52.896;6.496;2022-10-04T09:21:26;101901.19;;;13.65;92.53
20043;BME280;10182;52.896;6.496;2022-10-04T09:26:36;101895.94;;;13.86;90.22
20043;BME280;10182;52.896;6.496;2022-10-04T09:32:05;101902.72;;;13.93;89.00
20043;BME280;10182;52.896;6.496;2022-10-04T09:37:39;101895.13;;;14.04;88.43
20043;BME280;10182;52.896;6.496;2022-10-04T09:43:14;101896.88;;;14.26;89.19
20043;BME280;10182;52.896;6.496;2022-10-04T09:48:27;101880.41;;;14.37;86.80
20043;BME280;10182;52.896;6.496;2022-10-04T09:53:43;101877.13;;;14.51;87.71
20043;BME280;10182;52.896;6.496;2022-10-04T09:59:23;101877.03;;;14.52;86.54
20043;BME280;10182;52.896;6.496;2022-10-04T10:04:41;101872.53;;;14.54;86.03
20043;BME280;10182;52.896;6.496;2022-10-04T10:09:52;101875.78;;;14.61;84.69
20043;BME280;10182;52.896;6.496;2022-10-04T10:15:23;101864.69;;;14.70;84.71
20043;BME280;10182;52.896;6.496;2022-10-04T10:20:52;101856.50;;;14.94;83.31
20043;BME280;10182;52.896;6.496;2022-10-04T10:26:18;101853.38;;;15.03;82.36
20043;BME280;10182;52.896;6.496;2022-10-04T10:31:43;101837.09;;;15.10;81.48
20043;BME280;10182;52.896;6.496;2022-10-04T10:37:03;101830.09;;;15.07;80.19
20043;BME280;10182;52.896;6.496;2022-10-04T10:47:52;101842.50;;;15.45;80.64
20043;BME280;10182;52.896;6.496;2022-10-04T10:53:35;101853.59;;;15.54;77.62
20043;BME280;10182;52.896;6.496;2022-10-04T11:04:44;101841.00;;;15.56;78.23
20043;BME280;10182;52.896;6.496;2022-10-04T11:16:10;101822.50;;;15.71;77.52
20043;BME280;10182;52.896;6.496;2022-10-04T11:27:23;101822.44;;;15.90;75.95
20043;BME280;10182;52.896;6.496;2022-10-04T11:33:07;101820.16;;;16.00;75.65
20043;BME280;10182;52.896;6.496;2022-10-04T11:38:28;101808.97;;;16.09;76.22
20043;BME280;10182;52.896;6.496;2022-10-04T11:43:52;101798.44;;;16.06;76.03
20043;BME280;10182;52.896;6.496;2022-10-04T11:49:13;101794.72;;;16.08;75.46
20043;BME280;10182;52.896;6.496;2022-10-04T11:54:36;101796.00;;;16.01;76.01
20043;BME280;10182;52.896;6.496;2022-10-04T11:59:56;101795.06;;;16.02;74.70
20043;BME280;10182;52.896;6.496;2022-10-04T12:05:17;101778.56;;;16.12;74.60
20043;BME280;10182;52.896;6.496;2022-10-04T12:10:28;101782.41;;;16.06;75.70
20043;BME280;10182;52.896;6.496;2022-10-04T12:15:45;101771.66;;;16.07;75.56
20043;BME280;10182;52.896;6.496;2022-10-04T12:21:10;101768.13;;;16.23;75.12
20043;BME280;10182;52.896;6.496;2022-10-04T12:32:09;101758.81;;;16.30;76.70
20043;BME280;10182;52.896;6.496;2022-10-04T12:37:19;101746.66;;;16.24;75.78
20043;BME280;10182;52.896;6.496;2022-10-04T12:42:33;101728.41;;;16.33;75.44
20043;BME280;10182;52.896;6.496;2022-10-04T12:47:44;101720.47;;;16.47;75.81
20043;BME280;10182;52.896;6.496;2022-10-04T12:52:54;101726.16;;;16.57;74.86
20043;BME280;10182;52.896;6.496;2022-10-04T12:58:02;101712.69;;;16.74;75.42
20043;BME280;10182;52.896;6.496;2022-10-04T13:03:19;101712.44;;;16.63;72.78
20043;BME280;10182;52.896;6.496;2022-10-04T13:08:38;101717.25;;;16.56;72.13
20043;BME280;10182;52.896;6.496;2022-10-04T13:14:15;101714.94;;;16.66;71.55
20043;BME280;10182;52.896;6.496;2022-10-04T13:19:29;101716.75;;;16.98;71.72
20043;BME280;10182;52.896;6.496;2022-10-04T13:24:41;101708.53;;;17.01;70.97
20043;BME280;10182;52.896;6.496;2022-10-04T13:30:04;101701.91;;;16.60;71.00
20043;BME280;10182;52.896;6.496;2022-10-04T13:35:13;101691.22;;;16.60;72.08
20043;BME280;10182;52.896;6.496;2022-10-04T13:40:31;101692.25;;;16.73;71.97
20043;BME280;10182;52.896;6.496;2022-10-04T13:45:52;101689.91;;;16.99;70.88
20043;BME280;10182;52.896;6.496;2022-10-04T13:51:22;101679.75;;;17.04;69.73
20043;BME280;10182;52.896;6.496;2022-10-04T13:56:49;101650.50;;;17.01;69.41
20043;BME280;10182;52.896;6.496;2022-10-04T14:08:04;101649.91;;;16.96;68.65
20043;BME280;10182;52.896;6.496;2022-10-04T14:24:56;101657.19;;;16.94;67.33
20043;BME280;10182;52.896;6.496;2022-10-04T14:30:19;101659.69;;;16.81;67.14
20043;BME280;10182;52.896;6.496;2022-10-04T14:35:25;101669.63;;;16.79;67.44
20043;BME280;10182;52.896;6.496;2022-10-04T14:46:13;101667.22;;;16.74;66.94
20043;BME280;10182;52.896;6.496;2022-10-04T14:51:39;101657.31;;;16.61;67.50
20043;BME280;10182;52.896;6.496;2022-10-04T14:56:57;101650.16;;;16.61;67.67
20043;BME280;10182;52.896;6.496;2022-10-04T15:02:18;101648.94;;;16.67;68.84
20043;BME280;10182;52.896;6.496;2022-10-04T15:07:29;101675.69;;;16.67;68.82
20043;BME280;10182;52.896;6.496;2022-10-04T15:12:55;101676.38;;;16.70;69.02
20043;BME280;10182;52.896;6.496;2022-10-04T15:18:03;101664.38;;;16.62;68.79
20043;BME280;10182;52.896;6.496;2022-10-04T15:23:14;101663.34;;;16.48;69.05
20043;BME280;10182;52.896;6.496;2022-10-04T15:28:56;101662.94;;;16.40;69.95
20043;BME280;10182;52.896;6.496;2022-10-04T15:34:05;101654.47;;;16.32;69.40
20043;BME280;10182;52.896;6.496;2022-10-04T15:39:42;101651.66;;;16.19;68.20
20043;BME280;10182;52.896;6.496;2022-10-04T15:45:02;101654.50;;;16.16;68.39
20043;BME280;10182;52.896;6.496;2022-10-04T15:50:22;101646.41;;;16.17;67.94
20043;BME280;10182;52.896;6.496;2022-10-04T15:55:46;101637.59;;;16.15;68.08
20043;BME280;10182;52.896;6.496;2022-10-04T16:01:02;101625.19;;;15.98;68.97
20043;BME280;10182;52.896;6.496;2022-10-04T16:06:15;101627.50;;;15.88;70.32
20043;BME280;10182;52.896;6.496;2022-10-04T16:11:36;101626.25;;;15.78;71.22
20043;BME280;10182;52.896;6.496;2022-10-04T16:22:35;101625.53;;;15.59;72.65
20043;BME280;10182;52.896;6.496;2022-10-04T16:27:55;101625.47;;;15.43;73.63
20043;BME280;10182;52.896;6.496;2022-10-04T16:33:25;101622.25;;;15.36;74.19
20043;BME280;10182;52.896;6.496;2022-10-04T16:38:34;101615.53;;;15.29;74.80
20043;BME280;10182;52.896;6.496;2022-10-04T16:44:00;101617.28;;;15.12;75.93
20043;BME280;10182;52.896;6.496;2022-10-04T16:49:17;101635.56;;;15.02;76.23
20043;BME280;10182;52.896;6.496;2022-10-04T16:54:53;101628.88;;;14.94;76.88
20043;BME280;10182;52.896;6.496;2022-10-04T16:59:58;101635.41;;;14.88;77.65
20043;BME280;10182;52.896;6.496;2022-10-04T17:05:18;101634.75;;;14.83;77.90
20043;BME280;10182;52.896;6.496;2022-10-04T17:10:31;101638.69;;;14.76;78.73
20043;BME280;10182;52.896;6.496;2022-10-04T17:15:45;101636.19;;;14.72;78.84
20043;BME280;10182;52.896;6.496;2022-10-04T17:20:54;101636.47;;;14.66;79.42
20043;BME280;10182;52.896;6.496;2022-10-04T17:26:05;101622.22;;;14.67;79.92
20043;BME280;10182;52.896;6.496;2022-10-04T17:31:13;101631.44;;;14.60;80.32
20043;BME280;10182;52.896;6.496;2022-10-04T17:36:36;101628.97;;;14.55;80.73
20043;BME280;10182;52.896;6.496;2022-10-04T17:41:51;101626.25;;;14.57;80.82
20043;BME280;10182;52.896;6.496;2022-10-04T17:47:02;101629.59;;;14.61;80.79
20043;BME280;10182;52.896;6.496;2022-10-04T17:52:13;101628.84;;;14.59;80.63
20043;BME280;10182;52.896;6.496;2022-10-04T17:57:47;101625.28;;;14.58;81.14
20043;BME280;10182;52.896;6.496;2022-10-04T18:03:00;101628.56;;;14.65;80.74
20043;BME280;10182;52.896;6.496;2022-10-04T18:08:11;101630.50;;;14.61;80.65
20043;BME280;10182;52.896;6.496;2022-10-04T18:13:24;101634.16;;;14.59;81.36
20043;BME280;10182;52.896;6.496;2022-10-04T18:18:37;101628.75;;;14.60;81.88
20043;BME280;10182;52.896;6.496;2022-10-04T18:23:50;101631.50;;;14.59;81.96
20043;BME280;10182;52.896;6.496;2022-10-04T18:28:54;101630.44;;;14.63;81.68
20043;BME280;10182;52.896;6.496;2022-10-04T18:34:02;101597.78;;;14.58;81.86
20043;BME280;10182;52.896;6.496;2022-10-04T18:39:18;101596.84;;;14.59;82.61
20043;BME280;10182;52.896;6.496;2022-10-04T18:44:23;101604.13;;;14.55;82.59
20043;BME280;10182;52.896;6.496;2022-10-04T18:49:29;101626.25;;;14.57;82.78
20043;BME280;10182;52.896;6.496;2022-10-04T18:54:39;101619.97;;;14.58;82.64
20043;BME280;10182;52.896;6.496;2022-10-04T18:59:56;101604.03;;;14.56;83.25
20043;BME280;10182;52.896;6.496;2022-10-04T19:05:23;101597.63;;;14.61;82.80
20043;BME280;10182;52.896;6.496;2022-10-04T19:10:31;101598.53;;;14.60;83.24
20043;BME280;10182;52.896;6.496;2022-10-04T19:15:41;101594.25;;;14.57;83.29
20043;BME280;10182;52.896;6.496;2022-10-04T19:20:47;101577.31;;;14.58;83.83
20043;BME280;10182;52.896;6.496;2022-10-04T19:25:54;101569.97;;;14.63;83.70
20043;BME280;10182;52.896;6.496;2022-10-04T19:31:05;101556.56;;;14.65;84.02
20043;BME280;10182;52.896;6.496;2022-10-04T19:36:18;101552.16;;;14.64;84.08
20043;BME280;10182;52.896;6.496;2022-10-04T19:41:32;101534.56;;;14.60;84.88
20043;BME280;10182;52.896;6.496;2022-10-04T19:46:42;101546.78;;;14.65;84.79
20043;BME280;10182;52.896;6.496;2022-10-04T19:51:49;101553.97;;;14.63;85.00
20043;BME280;10182;52.896;6.496;2022-10-04T19:56:53;101557.78;;;14.58;85.51
20043;BME280;10182;52.896;6.496;2022-10-04T20:01:58;101563.19;;;14.56;85.77
20043;BME280;10182;52.896;6.496;2022-10-04T20:07:02;101580.22;;;14.53;86.03
20043;BME280;10182;52.896;6.496;2022-10-04T20:12:05;101575.91;;;14.51;86.62
20043;BME280;10182;52.896;6.496;2022-10-04T20:17:31;101561.56;;;14.53;86.69
20043;BME280;10182;52.896;6.496;2022-10-04T20:22:53;101543.81;;;14.52;87.25
20043;BME280;10182;52.896;6.496;2022-10-04T20:28:01;101538.75;;;14.48;87.38
20043;BME280;10182;52.896;6.496;2022-10-04T20:33:04;101536.91;;;14.48;87.62
20043;BME280;10182;52.896;6.496;2022-10-04T20:38:13;101538.81;;;14.46;88.24
20043;BME280;10182;52.896;6.496;2022-10-04T20:43:24;101543.50;;;14.41;88.48
20043;BME280;10182;52.896;6.496;2022-10-04T20:48:28;101545.25;;;14.42;88.48
20043;BME280;10182;52.896;6.496;2022-10-04T20:53:32;101535.50;;;14.41;89.11
20043;BME280;10182;52.896;6.496;2022-10-04T20:58:34;101545.25;;;14.42;89.41
20043;BME280;10182;52.896;6.496;2022-10-04T21:03:37;101547.75;;;14.45;89.13
20043;BME280;10182;52.896;6.496;2022-10-04T21:08:38;101560.16;;;14.46;89.27
20043;BME280;10182;52.896;6.496;2022-10-04T21:13:46;101563.41;;;14.51;89.21
20043;BME280;10182;52.896;6.496;2022-10-04T21:18:49;101561.72;;;14.50;89.28
20043;BME280;10182;52.896;6.496;2022-10-04T21:23:51;101558.88;;;14.53;89.36
20043;BME280;10182;52.896;6.496;2022-10-04T21:28:53;101540.53;;;14.47;90.11
20043;BME280;10182;52.896;6.496;2022-10-04T21:33:57;101536.16;;;14.46;90.67
20043;BME280;10182;52.896;6.496;2022-10-04T21:38:59;101531.75;;;14.45;90.62
20043;BME280;10182;52.896;6.496;2022-10-04T21:44:00;101540.69;;;14.44;90.91
20043;BME280;10182;52.896;6.496;2022-10-04T21:49:04;101542.50;;;14.44;91.29
20043;BME280;10182;52.896;6.496;2022-10-04T21:54:06;101536.06;;;14.48;91.61
20043;BME280;10182;52.896;6.496;2022-10-04T21:59:08;101540.53;;;14.47;91.88
20043;BME280;10182;52.896;6.496;2022-10-04T22:04:11;101535.19;;;14.47;91.75
20043;BME280;10182;52.896;6.496;2022-10-04T22:09:12;101532.44;;;14.49;92.48
20043;BME280;10182;52.896;6.496;2022-10-04T22:14:14;101538.50;;;14.52;92.33
20043;BME280;10182;52.896;6.496;2022-10-04T22:19:17;101541.00;;;14.55;92.36
20043;BME280;10182;52.896;6.496;2022-10-04T22:24:19;101550.66;;;14.58;92.18
20043;BME280;10182;52.896;6.496;2022-10-04T22:29:21;101541.78;;;14.58;92.74
20043;BME280;10182;52.896;6.496;2022-10-04T22:34:24;101530.03;;;14.62;92.62
20043;BME280;10182;52.896;6.496;2022-10-04T22:39:26;101515.81;;;14.63;93.10
20043;BME280;10182;52.896;6.496;2022-10-04T22:44:33;101505.13;;;14.63;92.59
20043;BME280;10182;52.896;6.496;2022-10-04T22:49:38;101506.84;;;14.64;92.97
20043;BME280;10182;52.896;6.496;2022-10-04T22:54:43;101508.66;;;14.63;92.93
20043;BME280;10182;52.896;6.496;2022-10-04T22:59:46;101498.69;;;14.67;92.35
20043;BME280;10182;52.896;6.496;2022-10-04T23:04:51;101495.25;;;14.65;92.24
20043;BME280;10182;52.896;6.496;2022-10-04T23:09:54;101478.59;;;14.60;93.02
20043;BME280;10182;52.896;6.496;2022-10-04T23:14:55;101490.28;;;14.57;93.36
20043;BME280;10182;52.896;6.496;2022-10-04T23:20:02;101495.53;;;14.59;92.97
20043;BME280;10182;52.896;6.496;2022-10-04T23:25:12;101493.91;;;14.56;93.54
20043;BME280;10182;52.896;6.496;2022-10-04T23:30:16;101493.97;;;14.54;93.79
20043;BME280;10182;52.896;6.496;2022-10-04T23:35:22;101495.94;;;14.51;94.20
20043;BME280;10182;52.896;6.496;2022-10-04T23:40:24;101491.53;;;14.50;93.76
20043;BME280;10182;52.896;6.496;2022-10-04T23:45:26;101472.19;;;14.46;94.36
20043;BME280;10182;52.896;6.496;2022-10-04T23:50:31;101473.88;;;14.47;93.85
20043;BME280;10182;52.896;6.496;2022-10-04T23:55:35;101475.63;;;14.48;94.06
